This is the latest recevied weather packets stored in our database for station/object N5SRF. If no packets are shown the sender has not sent any weather packets the latest 10 day(s).
| Time | Temp. | Humidity | Pressure | Rain* | Wind** | Luminosity | Snow |
|---|---|---|---|---|---|---|---|
| 1788039236 | 37.22° C | 45% | 1018.3 hPa | 0 mm | - | 469 W/m² | - |
| 1788038932 | 36.67° C | 46% | 1018.3 hPa | 0 mm | - | 492 W/m² | - |
| 1788038627 | 37.22° C | 44% | 1018.6 hPa | 0 mm | - | 479 W/m² | - |
| 1788038326 | 37.22° C | 45% | 1018.5 hPa | 0 mm | - | 508 W/m² | - |
| 1788038022 | 37.22° C | 44% | 1018.4 hPa | 0 mm | - | 517 W/m² | - |
| 1788037721 | 37.78° C | 43% | 1018.7 hPa | 0 mm | - | 524 W/m² | - |
| 1788037417 | 37.22° C | 44% | 1018.8 hPa | 0 mm | - | 526 W/m² | - |
| 1788037116 | 37.78° C | 43% | 1018.8 hPa | 0 mm | - | 531 W/m² | - |
| 1788036811 | 37.22° C | 44% | 1018.8 hPa | 0 mm | - | 547 W/m² | - |
| 1788036509 | 37.78° C | 45% | 1019 hPa | 0 mm | - | 563 W/m² | - |
| 1788036208 | 37.22° C | 45% | 1019 hPa | 0 mm | - | 591 W/m² | - |
| 1788035903 | 37.22° C | 47% | 1019.4 hPa | 0 mm | - | 623 W/m² | - |
| 1788035603 | 37.78° C | 44% | 1019.4 hPa | 0 mm | - | 636 W/m² | - |
| 1788035298 | 37.22° C | 47% | 1019.4 hPa | 0 mm | - | 640 W/m² | - |
| 1788034994 | 36.67° C | 47% | 1019.5 hPa | 0 mm | - | 637 W/m² | - |
| 1788034690 | 36.11° C | 47% | 1019.7 hPa | 0 mm | - | 653 W/m² | - |
| 1788034386 | 36.11° C | 47% | 1019.6 hPa | 0 mm | - | 643 W/m² | - |
| 1788034082 | 36.67° C | 47% | 1020 hPa | 0 mm | - | 655 W/m² | - |
| 1788033780 | 36.67° C | 48% | 1019.8 hPa | 0 mm | - | 660 W/m² | - |
| 1788033480 | 36.11° C | 48% | 1020 hPa | 0 mm | - | 671 W/m² | - |
| 1788033175 | 35.56° C | 49% | 1020.1 hPa | 0 mm | - | 679 W/m² | - |
| 1788032870 | 34.44° C | 52% | 1020 hPa | 0 mm | - | 680 W/m² | - |
| 1788032569 | 34.44° C | 52% | 1020.4 hPa | 0 mm | - | 131 W/m² | - |
| 1788032265 | 34.44° C | 51% | 1020.4 hPa | 0 mm | - | 98 W/m² | - |
| 1788031961 | 35° C | 51% | 1020.6 hPa | 0 mm | - | 101 W/m² | - |
* Rain latest hour (hover to see other rain measurements)
** Current wind speed in m/s (hover to see current wind gust speed)